createdAt,value
2022-08-16T00:01:33.955Z,100080.00
2022-08-16T00:04:05.506Z,100086.80
2022-08-16T00:06:34.490Z,100087.80
2022-08-16T00:09:06.024Z,100079.00
2022-08-16T00:11:35.846Z,100075.80
2022-08-16T00:14:09.018Z,100071.20
2022-08-16T00:17:01.607Z,100065.60
2022-08-16T00:19:41.095Z,100062.20
2022-08-16T00:22:13.659Z,100056.20
2022-08-16T00:24:46.574Z,100059.00
2022-08-16T00:27:17.426Z,100061.00
2022-08-16T00:29:46.642Z,100062.80
2022-08-16T00:32:18.196Z,100066.80
2022-08-16T00:34:52.924Z,100068.00
2022-08-16T00:37:57.897Z,100066.80
2022-08-16T00:40:34.769Z,100073.00
2022-08-16T00:43:19.015Z,100076.00
2022-08-16T00:46:33.959Z,100076.20
2022-08-16T00:49:02.529Z,100077.00
2022-08-16T00:51:32.049Z,100087.60
2022-08-16T00:54:01.560Z,100097.80
2022-08-16T00:56:56.950Z,100099.60
2022-08-16T00:59:32.895Z,100095.80
2022-08-16T01:02:30.112Z,100098.80
2022-08-16T01:05:09.334Z,100104.60
2022-08-16T01:07:51.751Z,100108.20
2022-08-16T01:10:31.967Z,100111.40
2022-08-16T01:13:33.949Z,100117.80
2022-08-16T01:16:14.412Z,100116.00
2022-08-16T01:18:57.844Z,100112.80
2022-08-16T01:21:40.782Z,100118.60
2022-08-16T01:24:53.351Z,100116.20
2022-08-16T01:27:21.777Z,100115.80
2022-08-16T01:30:19.336Z,100114.00
2022-08-16T01:33:02.674Z,100115.80
2022-08-16T01:35:56.179Z,100117.60
2022-08-16T01:38:38.230Z,100123.20
2022-08-16T01:41:19.872Z,100127.00
2022-08-16T01:43:54.599Z,100125.60
2022-08-16T01:46:39.431Z,100126.40
2022-08-16T01:49:42.843Z,100121.40
2022-08-16T01:52:28.256Z,100120.80
2022-08-16T01:55:26.024Z,100121.20
2022-08-16T01:58:06.628Z,100121.60
2022-08-16T02:00:41.256Z,100132.60
2022-08-16T02:03:13.014Z,100140.60
2022-08-16T02:05:51.780Z,100137.40
2022-08-16T02:08:33.914Z,100134.00
2022-08-16T02:11:08.887Z,100135.60
2022-08-16T02:13:43.649Z,100134.60
2022-08-16T02:16:18.893Z,100128.20
2022-08-16T02:18:48.958Z,100124.40
2022-08-16T02:21:31.600Z,100123.00
2022-08-16T02:24:00.770Z,100125.60
2022-08-16T02:26:34.456Z,100129.80
2022-08-16T02:29:04.083Z,100134.20
2022-08-16T02:32:04.109Z,100123.80
2022-08-16T02:34:32.765Z,100132.20
2022-08-16T02:37:04.424Z,100133.60
2022-08-16T02:39:34.275Z,100129.80
2022-08-16T02:42:04.777Z,100132.60
2022-08-16T02:44:33.786Z,100131.80
2022-08-16T02:47:04.931Z,100128.00
2022-08-16T02:50:25.831Z,100136.00
2022-08-16T02:52:24.682Z,100139.80
2022-08-16T02:55:01.202Z,100134.40
2022-08-16T02:57:31.421Z,100129.80
2022-08-16T03:00:32.056Z,100131.00
2022-08-16T03:02:55.993Z,100131.60
2022-08-16T03:05:26.441Z,100123.60
2022-08-16T03:08:00.681Z,100133.60
2022-08-16T03:10:34.045Z,100138.20
2022-08-16T03:13:12.602Z,100137.80
2022-08-16T03:15:42.951Z,100133.80
2022-08-16T03:18:18.737Z,100140.40
2022-08-16T03:21:02.513Z,100140.60
2022-08-16T03:23:35.951Z,100140.60
2022-08-16T03:26:05.827Z,100145.00
2022-08-16T03:28:35.127Z,100149.40
2022-08-16T03:31:04.961Z,100148.40
2022-08-16T03:33:35.779Z,100149.80
2022-08-16T03:36:30.999Z,100153.20
2022-08-16T03:38:59.060Z,100152.60
2022-08-16T03:41:49.566Z,100153.40
2022-08-16T03:44:44.122Z,100156.80
2022-08-16T03:47:10.257Z,100160.60
2022-08-16T03:49:41.318Z,100161.40
2022-08-16T03:52:13.795Z,100163.80
2022-08-16T03:54:57.774Z,100166.80
2022-08-16T03:57:32.177Z,100164.60
2022-08-16T04:00:40.265Z,100164.20
2022-08-16T04:03:10.207Z,100166.60
2022-08-16T04:05:48.808Z,100165.00
2022-08-16T04:08:23.164Z,100172.80
2022-08-16T04:10:58.049Z,100168.20
2022-08-16T04:14:01.060Z,100170.00
2022-08-16T04:16:26.622Z,100176.40
2022-08-16T04:19:02.511Z,100188.00
2022-08-16T04:21:45.945Z,100188.20
2022-08-16T04:24:17.104Z,100196.60
2022-08-16T04:26:46.728Z,100198.40
2022-08-16T04:29:24.435Z,100203.60
2022-08-16T04:31:57.910Z,100209.80
2022-08-16T04:34:37.589Z,100220.40
2022-08-16T04:37:07.619Z,100224.60
2022-08-16T04:39:47.268Z,100223.20
2022-08-16T04:42:29.688Z,100226.60
2022-08-16T04:45:01.986Z,100230.60
2022-08-16T04:47:35.476Z,100228.40
2022-08-16T04:50:18.367Z,100228.60
2022-08-16T04:53:19.458Z,100228.40
2022-08-16T04:55:53.099Z,100227.20
2022-08-16T04:58:45.044Z,100228.60
2022-08-16T05:01:12.244Z,100224.00
2022-08-16T05:03:42.050Z,100226.00
2022-08-16T05:06:40.154Z,100223.80
2022-08-16T05:09:23.216Z,100224.60
2022-08-16T05:11:57.184Z,100220.00
2022-08-16T05:14:45.446Z,100216.20
2022-08-16T05:17:24.749Z,100215.00
2022-08-16T05:19:57.442Z,100222.00
2022-08-16T05:22:30.474Z,100221.00
2022-08-16T05:25:08.890Z,100229.40
2022-08-16T05:27:42.804Z,100223.00
2022-08-16T05:30:36.797Z,100219.80
2022-08-16T05:33:08.812Z,100226.40
2022-08-16T05:35:38.398Z,100226.00
2022-08-16T05:38:32.204Z,100223.80
2022-08-16T05:41:05.143Z,100223.80
2022-08-16T05:43:46.798Z,100220.80
2022-08-16T05:46:29.597Z,100215.60
2022-08-16T05:49:08.630Z,100215.00
2022-08-16T05:51:41.921Z,100214.40
2022-08-16T05:54:24.746Z,100223.60
2022-08-16T05:56:57.704Z,100221.60
2022-08-16T05:59:29.458Z,100218.40
2022-08-16T06:01:59.190Z,100217.00
2022-08-16T06:04:36.173Z,100221.80
2022-08-16T06:07:24.399Z,100219.60
2022-08-16T06:10:02.707Z,100215.80
2022-08-16T06:12:32.909Z,100226.20
2022-08-16T06:15:19.662Z,100233.80
2022-08-16T06:17:51.741Z,100241.20
2022-08-16T06:20:35.091Z,100247.20
2022-08-16T06:23:17.689Z,100243.40
2022-08-16T06:26:07.617Z,100249.00
2022-08-16T06:28:39.884Z,100254.40
2022-08-16T06:31:16.195Z,100246.40
2022-08-16T06:33:48.441Z,100244.20
2022-08-16T06:36:21.810Z,100246.80
2022-08-16T06:38:57.001Z,100250.00
2022-08-16T06:41:52.316Z,100247.20
2022-08-16T06:44:39.515Z,100244.60
2022-08-16T06:47:16.871Z,100247.00
2022-08-16T06:49:54.019Z,100250.20
2022-08-16T06:52:57.685Z,100256.60
2022-08-16T06:55:17.221Z,100260.60
2022-08-16T06:57:52.470Z,100262.80
2022-08-16T07:00:25.098Z,100266.60
2022-08-16T07:03:27.651Z,100265.80
2022-08-16T07:05:58.092Z,100269.40
2022-08-16T07:08:33.442Z,100269.60
2022-08-16T07:11:02.330Z,100277.60
2022-08-16T07:16:27.872Z,100279.20
2022-08-16T07:19:01.866Z,100277.80
2022-08-16T07:21:45.864Z,100286.80
2022-08-16T07:24:29.904Z,100292.20
2022-08-16T07:27:04.536Z,100292.60
2022-08-16T07:29:40.172Z,100289.40
2022-08-16T07:32:11.081Z,100286.80
2022-08-16T07:34:48.597Z,100288.80
2022-08-16T07:37:20.361Z,100292.20
2022-08-16T07:40:14.378Z,100293.00
2022-08-16T07:42:45.647Z,100288.40
2022-08-16T07:45:16.962Z,100294.00
2022-08-16T07:47:51.084Z,100296.20
2022-08-16T07:50:55.777Z,100297.60
2022-08-16T07:53:10.721Z,100296.40
2022-08-16T07:55:47.677Z,100303.40
2022-08-16T07:58:33.721Z,100299.80
2022-08-16T08:01:11.101Z,100304.80
2022-08-16T08:03:48.988Z,100313.60
2022-08-16T08:06:25.564Z,100312.20
2022-08-16T08:08:59.296Z,100312.00
2022-08-16T08:11:30.823Z,100320.20
2022-08-16T08:14:03.622Z,100320.60
2022-08-16T08:16:39.968Z,100323.20
2022-08-16T08:19:25.042Z,100325.40
2022-08-16T08:22:01.229Z,100332.40
2022-08-16T08:24:52.006Z,100338.60
2022-08-16T08:27:23.646Z,100341.40
2022-08-16T08:30:50.187Z,100342.80
2022-08-16T08:32:51.193Z,100349.20
2022-08-16T08:35:29.106Z,100352.00
2022-08-16T08:38:00.221Z,100347.00
2022-08-16T08:40:31.485Z,100347.20
2022-08-16T08:43:11.984Z,100350.20
2022-08-16T08:45:55.850Z,100357.60
2022-08-16T08:48:33.123Z,100353.40
2022-08-16T08:51:10.014Z,100354.40
2022-08-16T08:53:59.695Z,100354.20
2022-08-16T08:56:34.823Z,100352.40
2022-08-16T08:59:23.834Z,100357.20
2022-08-16T09:01:58.094Z,100360.00
2022-08-16T09:04:53.831Z,100361.60
2022-08-16T09:07:27.126Z,100357.00
2022-08-16T09:10:06.241Z,100366.00
2022-08-16T09:12:40.193Z,100366.00
2022-08-16T09:15:17.864Z,100363.20
2022-08-16T09:17:57.280Z,100369.20
2022-08-16T09:20:31.912Z,100368.40
2022-08-16T09:23:02.766Z,100366.80
2022-08-16T09:25:39.134Z,100367.80
2022-08-16T09:29:13.361Z,100373.60
2022-08-16T09:31:13.823Z,100375.40
2022-08-16T09:33:44.369Z,100366.40
2022-08-16T09:36:32.186Z,100366.00
2022-08-16T09:39:04.317Z,100365.00
2022-08-16T09:41:33.854Z,100363.60
2022-08-16T09:45:09.449Z,100359.20
2022-08-16T09:46:57.827Z,100360.40
2022-08-16T09:49:36.858Z,100357.80
2022-08-16T09:52:06.661Z,100357.20
2022-08-16T09:54:44.496Z,100356.40
2022-08-16T09:57:14.174Z,100358.40
2022-08-16T09:59:43.994Z,100360.80
2022-08-16T10:02:27.214Z,100358.60
2022-08-16T10:04:58.940Z,100359.20
2022-08-16T10:07:44.306Z,100361.20
2022-08-16T10:10:18.896Z,100362.60
2022-08-16T10:13:12.350Z,100363.80
2022-08-16T10:15:53.356Z,100363.00
2022-08-16T10:18:56.126Z,100361.80
2022-08-16T10:21:17.213Z,100365.40
2022-08-16T10:23:49.074Z,100358.20
2022-08-16T10:27:20.325Z,100363.40
2022-08-16T10:29:19.931Z,100355.60
2022-08-16T10:31:53.545Z,100348.80
2022-08-16T10:34:30.678Z,100349.80
2022-08-16T10:37:02.640Z,100352.20
2022-08-16T10:39:41.126Z,100353.40
2022-08-16T10:42:13.405Z,100352.00
2022-08-16T10:44:46.594Z,100351.60
2022-08-16T10:47:23.305Z,100350.40
2022-08-16T10:49:52.539Z,100351.00
2022-08-16T10:52:21.436Z,100342.40
2022-08-16T10:55:40.801Z,100345.60
2022-08-16T10:57:42.568Z,100342.40
2022-08-16T11:00:21.036Z,100339.00
2022-08-16T11:03:41.807Z,100335.20
2022-08-16T11:05:59.946Z,100343.20
2022-08-16T11:08:35.798Z,100346.80
2022-08-16T11:11:18.381Z,100338.40
2022-08-16T11:14:11.075Z,100344.80
2022-08-16T11:19:28.334Z,100341.00
2022-08-16T11:22:22.691Z,100329.80
2022-08-16T11:25:11.846Z,100332.80
2022-08-16T11:27:37.964Z,100333.80
2022-08-16T11:30:12.193Z,100342.60
2022-08-16T11:32:44.651Z,100342.20
2022-08-16T11:35:43.397Z,100347.60
2022-08-16T11:38:46.701Z,100340.00
2022-08-16T11:41:03.965Z,100339.40
2022-08-16T11:43:38.298Z,100342.00
2022-08-16T11:46:43.281Z,100340.80
2022-08-16T11:49:08.687Z,100341.00
2022-08-16T11:51:44.326Z,100338.20
2022-08-16T11:54:20.186Z,100338.40
2022-08-16T11:56:57.398Z,100347.80
2022-08-16T11:59:29.576Z,100344.00
2022-08-16T12:02:04.149Z,100336.40
2022-08-16T12:04:51.717Z,100335.80
2022-08-16T12:07:23.579Z,100336.60
2022-08-16T12:09:54.234Z,100327.60
2022-08-16T12:12:23.970Z,100335.00
2022-08-16T12:14:59.874Z,100330.20
2022-08-16T12:17:32.455Z,100327.20
2022-08-16T12:20:04.905Z,100331.80
2022-08-16T12:22:38.345Z,100329.60
2022-08-16T12:25:12.130Z,100323.40
2022-08-16T12:27:42.752Z,100317.00
2022-08-16T12:30:21.822Z,100319.20
2022-08-16T12:32:59.510Z,100320.40
2022-08-16T12:35:33.724Z,100317.00
2022-08-16T12:38:35.787Z,100313.80
2022-08-16T12:40:57.164Z,100310.60
2022-08-16T12:43:26.422Z,100305.40
2022-08-16T12:46:02.096Z,100304.40
2022-08-16T12:48:52.714Z,100301.20
2022-08-16T12:51:32.852Z,100295.60
2022-08-16T12:54:16.064Z,100295.80
2022-08-16T12:56:45.262Z,100293.20
2022-08-16T12:59:20.099Z,100292.60
2022-08-16T13:01:57.972Z,100293.40
2022-08-16T13:04:31.335Z,100292.00
2022-08-16T13:07:04.994Z,100283.20
2022-08-16T13:09:48.224Z,100284.60
2022-08-16T13:12:25.055Z,100291.60
2022-08-16T13:14:56.207Z,100284.00
2022-08-16T13:17:29.724Z,100281.20
2022-08-16T13:20:09.071Z,100280.00
2022-08-16T13:22:44.010Z,100283.80
2022-08-16T13:25:21.046Z,100286.00
2022-08-16T13:28:02.532Z,100283.20
2022-08-16T13:30:42.631Z,100282.80
2022-08-16T13:33:18.976Z,100285.60
2022-08-16T13:36:01.368Z,100288.00
2022-08-16T13:38:37.621Z,100290.80
2022-08-16T13:41:12.761Z,100295.80
2022-08-16T13:43:42.783Z,100290.60
2022-08-16T13:46:11.625Z,100291.20
2022-08-16T13:48:43.940Z,100284.80
2022-08-16T13:51:18.766Z,100280.20
2022-08-16T13:54:02.878Z,100275.40
2022-08-16T13:56:37.513Z,100276.40
2022-08-16T13:59:20.465Z,100273.80
2022-08-16T14:01:56.739Z,100273.40
2022-08-16T14:04:38.017Z,100278.00
2022-08-16T14:07:13.583Z,100279.60
2022-08-16T14:09:55.206Z,100279.20
2022-08-16T14:12:31.048Z,100272.20
2022-08-16T14:15:01.949Z,100271.00
2022-08-16T14:18:01.770Z,100276.60
2022-08-16T14:20:21.028Z,100275.80
2022-08-16T14:22:54.482Z,100275.20
2022-08-16T14:25:27.114Z,100272.60
2022-08-16T14:27:57.491Z,100275.20
2022-08-16T14:30:26.508Z,100270.00
2022-08-16T14:32:55.478Z,100268.40
2022-08-16T14:35:36.622Z,100267.40
2022-08-16T14:38:23.868Z,100267.20
2022-08-16T14:40:55.009Z,100261.00
2022-08-16T14:43:29.903Z,100263.40
2022-08-16T14:46:00.284Z,100263.60
2022-08-16T14:48:31.518Z,100263.40
2022-08-16T14:51:00.599Z,100264.80
2022-08-16T14:53:32.810Z,100262.80
2022-08-16T14:56:02.503Z,100266.20
2022-08-16T14:58:34.650Z,100271.00
2022-08-16T15:01:10.029Z,100270.20
2022-08-16T15:03:42.367Z,100273.80
2022-08-16T15:06:14.644Z,100273.20
2022-08-16T15:08:45.970Z,100270.80
2022-08-16T15:11:15.006Z,100276.00
2022-08-16T15:13:43.893Z,100276.20
2022-08-16T15:16:12.684Z,100271.20
2022-08-16T15:18:41.888Z,100274.20
2022-08-16T15:21:15.590Z,100281.40
2022-08-16T15:23:44.418Z,100273.20
2022-08-16T15:26:29.742Z,100279.20
2022-08-16T15:29:02.134Z,100281.40
2022-08-16T15:31:32.865Z,100274.60
2022-08-16T15:34:04.420Z,100273.60
2022-08-16T15:36:33.412Z,100279.00
2022-08-16T15:39:25.554Z,100283.60
2022-08-16T15:41:58.444Z,100281.40
2022-08-16T15:44:45.125Z,100280.40
2022-08-16T15:47:26.031Z,100281.80
2022-08-16T15:49:56.592Z,100283.00
2022-08-16T15:52:30.859Z,100287.20
2022-08-16T15:55:12.744Z,100285.40
2022-08-16T15:57:51.358Z,100282.80
2022-08-16T16:00:20.997Z,100286.60
2022-08-16T16:02:50.256Z,100285.40
2022-08-16T16:05:20.614Z,100287.60
2022-08-16T16:07:57.005Z,100287.60
2022-08-16T16:10:39.606Z,100286.40
2022-08-16T16:13:09.415Z,100289.40
2022-08-16T16:15:53.155Z,100290.20
2022-08-16T16:18:26.403Z,100292.80
2022-08-16T16:21:04.791Z,100296.00
2022-08-16T16:23:53.985Z,100297.80
2022-08-16T16:26:27.212Z,100302.60
2022-08-16T16:29:08.065Z,100305.00
2022-08-16T16:31:59.042Z,100308.80
2022-08-16T16:34:32.312Z,100310.80
2022-08-16T16:37:05.387Z,100312.40
2022-08-16T16:39:39.227Z,100313.20
2022-08-16T16:42:10.970Z,100314.80
2022-08-16T16:45:01.466Z,100317.80
2022-08-16T16:47:41.475Z,100317.00
2022-08-16T16:50:13.566Z,100312.60
2022-08-16T16:52:46.451Z,100321.80
2022-08-16T16:55:17.172Z,100322.80
2022-08-16T16:58:05.162Z,100329.40
2022-08-16T17:00:51.555Z,100328.40
2022-08-16T17:03:22.061Z,100331.00
2022-08-16T17:06:02.682Z,100335.20
2022-08-16T17:08:41.433Z,100335.40
2022-08-16T17:11:12.675Z,100344.40
2022-08-16T17:13:44.228Z,100347.20
2022-08-16T17:16:18.382Z,100357.80
2022-08-16T17:19:16.710Z,100358.00
2022-08-16T17:21:43.180Z,100359.00
2022-08-16T17:24:17.985Z,100360.00
2022-08-16T17:26:49.121Z,100361.00
2022-08-16T17:29:18.249Z,100365.60
2022-08-16T17:31:50.220Z,100363.80
2022-08-16T17:34:30.330Z,100367.80
2022-08-16T17:37:04.994Z,100369.80
2022-08-16T17:39:59.679Z,100369.60
2022-08-16T17:42:29.507Z,100368.20
2022-08-16T17:44:59.012Z,100374.80
2022-08-16T17:47:28.149Z,100375.60
2022-08-16T17:49:57.306Z,100377.20
2022-08-16T17:52:26.505Z,100375.60
2022-08-16T17:54:55.295Z,100380.00
2022-08-16T17:57:24.199Z,100380.60
2022-08-16T17:59:53.078Z,100384.60
2022-08-16T18:02:43.436Z,100390.40
2022-08-16T18:05:16.412Z,100388.80
2022-08-16T18:07:45.661Z,100388.80
2022-08-16T18:10:32.421Z,100386.00
2022-08-16T18:13:02.661Z,100392.40
2022-08-16T18:15:33.328Z,100394.60
2022-08-16T18:18:02.425Z,100400.80
2022-08-16T18:20:49.961Z,100403.40
2022-08-16T18:23:23.964Z,100405.20
2022-08-16T18:25:59.050Z,100402.60
2022-08-16T18:28:30.360Z,100406.60
2022-08-16T18:31:01.174Z,100408.40
2022-08-16T18:33:34.037Z,100405.80
2022-08-16T18:36:20.961Z,100412.40
2022-08-16T18:38:52.547Z,100412.40
2022-08-16T18:41:24.673Z,100410.40
2022-08-16T18:44:26.909Z,100414.20
2022-08-16T18:46:48.921Z,100417.60
2022-08-16T18:49:20.377Z,100417.80
2022-08-16T18:51:51.099Z,100417.20
2022-08-16T18:54:20.301Z,100421.60
2022-08-16T18:56:55.662Z,100430.40
2022-08-16T18:59:30.728Z,100428.80
2022-08-16T19:02:04.822Z,100433.40
2022-08-16T19:04:55.121Z,100436.20
2022-08-16T19:07:31.013Z,100443.80
2022-08-16T19:10:02.580Z,100444.00
2022-08-16T19:12:37.758Z,100448.40
2022-08-16T19:15:21.062Z,100448.40
2022-08-16T19:17:49.962Z,100451.60
2022-08-16T19:20:24.441Z,100452.00
2022-08-16T19:23:05.030Z,100455.00
2022-08-16T19:25:46.846Z,100459.80
2022-08-16T19:28:49.392Z,100461.80
2022-08-16T19:31:31.159Z,100469.60
2022-08-16T19:34:01.484Z,100470.00
2022-08-16T19:36:37.367Z,100470.40
2022-08-16T19:39:14.204Z,100466.40
2022-08-16T19:41:53.324Z,100468.20
2022-08-16T19:44:24.139Z,100471.60
2022-08-16T19:46:52.928Z,100469.80
2022-08-16T19:49:21.927Z,100470.80
2022-08-16T19:51:51.943Z,100470.80
2022-08-16T19:54:20.730Z,100472.40
2022-08-16T19:56:49.632Z,100474.40
2022-08-16T19:59:20.623Z,100479.60
2022-08-16T20:01:52.779Z,100483.80
2022-08-16T20:04:23.687Z,100487.80
2022-08-16T20:06:53.928Z,100486.80
2022-08-16T20:09:24.218Z,100486.80
2022-08-16T20:11:54.843Z,100484.20
2022-08-16T20:14:26.299Z,100481.00
2022-08-16T20:17:00.039Z,100487.40
2022-08-16T20:19:35.197Z,100487.80
2022-08-16T20:22:51.987Z,100487.60
2022-08-16T20:25:32.999Z,100489.80
2022-08-16T20:28:01.931Z,100490.40
2022-08-16T20:30:30.821Z,100486.20
2022-08-16T20:32:59.609Z,100492.20
2022-08-16T20:35:29.912Z,100492.80
2022-08-16T20:38:00.361Z,100486.00
2022-08-16T20:40:35.109Z,100488.00
2022-08-16T20:43:14.356Z,100483.00
2022-08-16T20:45:47.269Z,100483.80
2022-08-16T20:48:16.106Z,100482.80
2022-08-16T20:50:45.608Z,100488.40
2022-08-16T20:53:14.397Z,100489.20
2022-08-16T20:55:44.970Z,100490.60
2022-08-16T20:58:14.240Z,100492.20
2022-08-16T21:00:43.402Z,100496.60
2022-08-16T21:03:13.651Z,100497.20
2022-08-16T21:05:43.156Z,100499.20
2022-08-16T21:08:50.998Z,100499.40
2022-08-16T21:11:04.954Z,100503.00
2022-08-16T21:13:36.209Z,100500.60
2022-08-16T21:16:08.214Z,100500.40
2022-08-16T21:18:37.006Z,100502.80
2022-08-16T21:21:06.028Z,100506.20
2022-08-16T21:23:35.400Z,100507.80
2022-08-16T21:26:10.839Z,100506.80
2022-08-16T21:28:43.191Z,100505.00
2022-08-16T21:31:16.111Z,100508.20
2022-08-16T21:33:54.153Z,100505.80
2022-08-16T21:36:35.955Z,100499.80
2022-08-16T21:39:06.658Z,100503.80
2022-08-16T21:41:38.659Z,100505.40
2022-08-16T21:44:08.328Z,100503.60
2022-08-16T21:46:37.209Z,100503.60
2022-08-16T21:49:06.511Z,100503.60
2022-08-16T21:51:36.570Z,100505.20
2022-08-16T21:54:05.934Z,100499.40
2022-08-16T21:56:35.132Z,100508.20
2022-08-16T21:59:11.051Z,100503.20
2022-08-16T22:01:43.065Z,100511.00
2022-08-16T22:04:36.663Z,100513.80
2022-08-16T22:07:04.181Z,100510.80
2022-08-16T22:09:33.175Z,100510.20
2022-08-16T22:12:02.146Z,100515.40
2022-08-16T22:14:31.059Z,100515.40
2022-08-16T22:16:59.850Z,100516.20
2022-08-16T22:19:28.638Z,100517.40
2022-08-16T22:21:57.426Z,100517.60
2022-08-16T22:24:26.423Z,100513.60
2022-08-16T22:26:55.312Z,100516.00
2022-08-16T22:29:24.206Z,100514.80
2022-08-16T22:31:52.992Z,100510.60
2022-08-16T22:34:21.985Z,100512.20
2022-08-16T22:36:51.598Z,100519.80
2022-08-16T22:39:20.384Z,100522.40
2022-08-16T22:41:50.299Z,100521.00
2022-08-16T22:44:19.584Z,100521.00
2022-08-16T22:46:48.390Z,100522.20
2022-08-16T22:49:17.282Z,100526.20
2022-08-16T22:51:46.173Z,100525.40
2022-08-16T22:54:44.329Z,100527.20
2022-08-16T22:57:05.709Z,100528.80
2022-08-16T22:59:34.557Z,100532.00
2022-08-16T23:02:06.569Z,100532.20
2022-08-16T23:04:35.413Z,100530.40
2022-08-16T23:07:06.253Z,100520.80
2022-08-16T23:09:35.039Z,100520.80
2022-08-16T23:12:07.696Z,100521.60
2022-08-16T23:14:36.612Z,100520.40
2022-08-16T23:17:05.603Z,100526.80
2022-08-16T23:19:34.394Z,100520.40
2022-08-16T23:22:04.207Z,100516.40
2022-08-16T23:24:37.004Z,100515.40
2022-08-16T23:27:15.813Z,100518.40
2022-08-16T23:29:44.609Z,100516.40
2022-08-16T23:32:14.211Z,100519.80
2022-08-16T23:34:43.002Z,100520.20
2022-08-16T23:37:12.199Z,100523.80
2022-08-16T23:39:41.460Z,100521.00
2022-08-16T23:42:52.176Z,100523.80
2022-08-16T23:45:07.406Z,100518.60
2022-08-16T23:47:36.234Z,100514.60
2022-08-16T23:50:05.842Z,100518.80
2022-08-16T23:52:53.850Z,100516.80
2022-08-16T23:55:24.060Z,100518.40
2022-08-16T23:57:53.150Z,100520.00
